Time;durP1;ratioP1;P1;durP2;ratioP2;P2;SDS_P1;SDS_P2;PMS_P1;PMS_P2;Temp;Humidity;BMP_temperature;BMP_pressure;BME280_temperature;BME280_humidity;BME280_pressure;Samples;Min_cycle;Max_cycle;Signal;HPM_P1;HPM_P2
2022/03/04 00:02:12;;;;;;;19.33;9.80;;;-0.10;99.90;-1.00;101096.00;;;;4973374;28;107545;-65
2022/03/04 00:04:38;;;;;;;15.13;9.63;;;-0.80;99.90;-1.00;101089.00;;;;4974940;28;87639;-64
2022/03/04 00:07:07;;;;;;;16.80;9.90;;;-0.60;99.90;-1.00;101085.00;;;;4974383;28;95395;-65
2022/03/04 00:09:33;;;;;;;15.57;10.07;;;0.20;99.90;-0.90;101086.00;;;;4973062;28;89772;-65
2022/03/04 00:12:02;;;;;;;12.43;7.90;;;-0.60;99.90;-0.90;101083.00;;;;4974632;28;87841;-65
2022/03/04 00:14:28;;;;;;;22.83;9.27;;;-0.60;99.90;-0.80;101086.00;;;;4974751;28;87094;-64
2022/03/04 00:16:53;;;;;;;17.60;8.27;;;-0.50;99.90;-0.80;101083.00;;;;4973539;28;117949;-65
2022/03/04 00:19:19;;;;;;;20.03;9.63;;;0.20;99.90;-0.70;101091.00;;;;4974433;28;116952;-64
2022/03/04 00:21:49;;;;;;;12.63;8.17;;;-0.50;99.90;-0.70;101095.00;;;;4977168;28;110442;-65
2022/03/04 00:24:17;;;;;;;18.87;9.87;;;-0.40;99.90;-0.60;101099.00;;;;4976015;28;87497;-65
2022/03/04 00:26:43;;;;;;;16.47;9.27;;;-0.30;99.90;-0.50;101100.00;;;;4978001;28;104734;-66
2022/03/04 00:29:09;;;;;;;11.90;7.87;;;-0.30;99.90;-0.50;101107.00;;;;4976471;28;87819;-65
2022/03/04 00:31:37;;;;;;;11.87;8.80;;;-0.20;99.90;-0.50;101094.00;;;;4978103;28;87904;-65
2022/03/04 00:34:06;;;;;;;13.60;8.80;;;-0.10;99.90;-0.40;101102.00;;;;4978867;28;87545;-62
2022/03/04 00:36:36;;;;;;;18.33;10.27;;;0.40;99.90;-0.30;101092.00;;;;4977112;28;87766;-64
2022/03/04 00:39:10;;;;;;;16.63;9.17;;;-0.10;99.90;-0.30;101094.00;;;;4978165;28;88595;-63
2022/03/04 00:41:36;;;;;;;21.57;8.23;;;0.00;99.90;-0.30;101101.00;;;;4977318;28;87817;-64
2022/03/04 00:44:02;;;;;;;19.20;8.40;;;0.50;99.90;-0.30;101106.00;;;;4977889;28;109244;-64
2022/03/04 00:46:27;;;;;;;13.33;8.70;;;0.60;99.90;-0.30;101086.00;;;;4975564;28;102448;-64
2022/03/04 00:48:53;;;;;;;20.77;9.17;;;0.10;99.90;-0.30;101090.00;;;;4977496;28;113873;-64
2022/03/04 00:51:19;;;;;;;20.07;9.33;;;0.50;99.90;-0.20;101091.00;;;;4977297;28;110699;-64
2022/03/04 00:53:45;;;;;;;12.63;8.10;;;0.40;99.90;-0.20;101099.00;;;;4978042;28;87603;-63
2022/03/04 00:56:12;;;;;;;16.43;9.27;;;0.10;99.90;-0.20;101094.00;;;;4977015;28;106494;-65
2022/03/04 00:58:40;;;;;;;16.43;9.07;;;0.00;99.90;-0.20;101077.00;;;;4975514;28;102760;-65
2022/03/04 01:01:06;;;;;;;13.13;9.03;;;0.10;99.90;-0.20;101089.00;;;;4977725;28;87576;-65
2022/03/04 01:03:33;;;;;;;15.33;7.53;;;0.10;99.90;-0.20;101089.00;;;;4977642;28;101784;-65
2022/03/04 01:06:00;;;;;;;17.27;8.87;;;0.70;99.90;-0.20;101093.00;;;;4975732;28;117180;-65
2022/03/04 01:08:26;;;;;;;15.93;8.40;;;0.20;99.90;-0.20;101089.00;;;;4977174;28;96151;-65
2022/03/04 01:10:52;;;;;;;18.00;9.23;;;1.00;99.90;-0.10;101100.00;;;;4977529;28;89126;-64
2022/03/04 01:13:18;;;;;;;22.10;10.20;;;0.20;99.90;-0.10;101102.00;;;;4976823;28;105843;-64
2022/03/04 01:15:44;;;;;;;15.93;9.43;;;0.30;99.90;-0.10;101099.00;;;;4976409;28;88905;-65
2022/03/04 01:18:11;;;;;;;17.13;9.00;;;0.20;99.90;-0.10;101096.00;;;;4976892;28;88568;-64
2022/03/04 01:20:37;;;;;;;17.53;9.27;;;0.20;99.90;-0.10;101099.00;;;;4976969;28;108709;-64
2022/03/04 01:23:03;;;;;;;14.97;8.37;;;0.20;99.90;-0.10;101101.00;;;;4977273;28;109124;-64
2022/03/04 01:25:28;;;;;;;14.30;9.73;;;0.20;99.90;-0.10;101094.00;;;;4976793;28;88087;-63
2022/03/04 01:27:54;;;;;;;17.03;8.73;;;0.20;99.90;0.00;101101.00;;;;4976703;28;116073;-63
2022/03/04 01:30:20;;;;;;;18.00;10.00;;;0.30;99.90;-0.10;101092.00;;;;4976507;28;110405;-63
2022/03/04 01:32:46;;;;;;;12.77;7.77;;;0.20;99.90;0.00;101095.00;;;;4974814;28;87771;-64
2022/03/04 01:35:13;;;;;;;16.50;9.30;;;0.90;99.90;0.00;101088.00;;;;4974770;28;89036;-64
2022/03/04 01:37:41;;;;;;;16.47;9.40;;;0.20;99.90;0.00;101103.00;;;;4977014;28;88268;-65
2022/03/04 01:40:09;;;;;;;16.07;9.80;;;0.30;99.90;0.00;101086.00;;;;4977393;28;87925;-64
2022/03/04 01:42:36;;;;;;;13.53;8.83;;;0.30;99.90;0.00;101086.00;;;;4978245;28;87864;-64
2022/03/04 01:45:05;;;;;;;15.53;9.87;;;0.30;99.90;0.00;101084.00;;;;4976554;28;104817;-64
2022/03/04 01:47:31;;;;;;;17.13;9.10;;;0.40;99.90;0.00;101094.00;;;;4976167;28;99392;-63
2022/03/04 01:49:56;;;;;;;13.17;9.60;;;0.40;99.90;0.00;101093.00;;;;4976579;28;111981;-64
2022/03/04 01:52:22;;;;;;;20.43;9.70;;;0.30;99.90;0.10;101085.00;;;;4976518;28;108614;-64
2022/03/04 01:54:48;;;;;;;15.20;8.87;;;0.40;99.90;0.10;101091.00;;;;4975494;28;116259;-64
2022/03/04 01:57:13;;;;;;;21.13;10.60;;;0.30;99.90;0.10;101091.00;;;;4975660;28;117283;-64
2022/03/04 01:59:39;;;;;;;15.60;9.73;;;1.00;99.90;0.10;101086.00;;;;4974967;28;101902;-64
2022/03/04 02:02:05;;;;;;;17.30;9.67;;;0.90;99.90;0.10;101095.00;;;;4976225;28;107852;-64
2022/03/04 02:04:31;;;;;;;15.33;7.83;;;1.00;99.90;0.20;101082.00;;;;4975684;28;109935;-64
2022/03/04 02:06:56;;;;;;;20.17;10.77;;;0.80;99.90;0.10;101074.00;;;;4975222;28;115982;-64
2022/03/04 02:09:22;;;;;;;14.83;8.67;;;0.70;99.90;0.10;101081.00;;;;4975704;28;101483;-64
2022/03/04 02:11:48;;;;;;;19.67;8.67;;;0.50;99.90;0.20;101080.00;;;;4976940;28;89269;-64
2022/03/04 02:14:15;;;;;;;22.63;8.83;;;0.50;99.90;0.20;101074.00;;;;4977386;28;88640;-64
2022/03/04 02:16:46;;;;;;;19.73;10.13;;;0.60;99.90;0.20;101069.00;;;;4975531;28;116651;-64
2022/03/04 02:19:13;;;;;;;14.63;9.40;;;0.50;99.90;0.20;101080.00;;;;4976859;28;87694;-64
2022/03/04 02:21:52;;;;;;;13.67;8.03;;;1.30;99.90;0.20;101066.00;;;;4977173;28;88686;-64
2022/03/04 02:24:19;;;;;;;15.00;8.70;;;0.60;99.90;0.20;101073.00;;;;4975880;28;90620;-64
2022/03/04 02:26:45;;;;;;;17.97;9.97;;;1.60;99.90;0.20;101071.00;;;;4976096;28;89371;-64
2022/03/04 02:29:12;;;;;;;16.70;9.70;;;1.50;99.90;0.30;101072.00;;;;4975980;28;87551;-64
2022/03/04 02:31:38;;;;;;;23.13;9.47;;;0.60;99.90;0.30;101070.00;;;;4975205;28;108862;-65
2022/03/04 02:34:04;;;;;;;14.80;9.10;;;0.60;99.90;0.30;101063.00;;;;4976089;28;117702;-65
2022/03/04 02:36:30;;;;;;;17.47;10.17;;;0.50;99.90;0.30;101073.00;;;;4975971;28;88101;-65
2022/03/04 02:38:56;;;;;;;17.77;9.20;;;0.60;99.90;0.30;101072.00;;;;4975558;28;109974;-65
2022/03/04 02:41:21;;;;;;;17.23;9.47;;;1.00;99.90;0.30;101066.00;;;;4976381;28;86866;-64
2022/03/04 02:43:47;;;;;;;15.23;9.00;;;0.80;99.90;0.40;101074.00;;;;4974877;28;117499;-64
2022/03/04 02:46:13;;;;;;;14.37;8.60;;;1.10;99.90;0.40;101070.00;;;;4974550;28;117047;-64
2022/03/04 02:48:39;;;;;;;17.27;10.13;;;1.10;99.90;0.40;101072.00;;;;4976064;28;88671;-64
2022/03/04 02:51:06;;;;;;;18.07;9.13;;;0.70;99.90;0.40;101081.00;;;;4956145;28;94789;-65
2022/03/04 02:53:32;;;;;;;15.83;9.90;;;0.60;99.90;0.40;101087.00;;;;4956028;28;88699;-65
2022/03/04 02:55:58;;;;;;;13.07;7.73;;;0.70;99.90;0.50;101092.00;;;;4960428;28;88954;-65
2022/03/04 02:58:24;;;;;;;16.13;8.83;;;0.70;99.90;0.50;101090.00;;;;4975339;28;110077;-64
2022/03/04 03:00:50;;;;;;;13.43;8.47;;;1.60;99.90;0.50;101088.00;;;;4975846;28;108929;-64
2022/03/04 03:03:16;;;;;;;17.90;8.77;;;0.80;99.90;0.50;101085.00;;;;4975832;28;88609;-65
2022/03/04 03:05:41;;;;;;;18.10;8.67;;;0.80;99.90;0.50;101083.00;;;;4974818;28;116455;-64
2022/03/04 03:08:07;;;;;;;18.80;9.60;;;0.70;99.90;0.50;101088.00;;;;4976598;28;87587;-64
2022/03/04 03:10:34;;;;;;;15.07;9.23;;;1.20;99.90;0.50;101090.00;;;;4975999;28;108574;-64
2022/03/04 03:13:00;;;;;;;13.17;8.63;;;0.90;99.90;0.60;101082.00;;;;4978717;28;89858;-66
2022/03/04 03:15:26;;;;;;;16.17;8.30;;;0.70;99.90;0.60;101092.00;;;;4982815;28;117132;-65
2022/03/04 03:17:52;;;;;;;14.00;8.77;;;0.90;99.90;0.60;101090.00;;;;4976412;28;88130;-64
2022/03/04 03:20:19;;;;;;;24.77;11.87;;;0.90;99.90;0.70;101105.00;;;;4975909;28;87866;-66
2022/03/04 03:22:45;;;;;;;20.23;10.63;;;1.10;99.90;0.70;101089.00;;;;4974930;28;94335;-65
2022/03/04 03:25:12;;;;;;;19.43;11.40;;;1.70;99.90;0.70;101104.00;;;;4972982;28;118087;-66
2022/03/04 03:27:38;;;;;;;22.53;11.40;;;1.70;99.90;0.80;101102.00;;;;4974943;28;87708;-65
2022/03/04 03:30:06;;;;;;;27.27;12.90;;;1.00;99.90;0.70;101093.00;;;;4975677;28;93867;-66
2022/03/04 03:32:32;;;;;;;15.67;10.33;;;1.10;99.90;0.80;101112.00;;;;4974085;28;98807;-65
2022/03/04 03:34:59;;;;;;;19.77;11.67;;;1.20;99.90;0.80;101092.00;;;;4975203;28;88287;-65
2022/03/04 03:37:24;;;;;;;24.30;12.63;;;1.10;99.90;0.80;101088.00;;;;4974713;28;88744;-65
2022/03/04 03:39:50;;;;;;;19.03;11.53;;;1.00;99.90;0.70;101106.00;;;;4975158;28;87914;-66
2022/03/04 03:42:16;;;;;;;19.20;11.17;;;1.60;99.90;0.70;101114.00;;;;4974665;28;89136;-65
2022/03/04 03:44:42;;;;;;;23.73;10.93;;;1.10;99.90;0.70;101107.00;;;;4973200;28;117484;-65
2022/03/04 03:47:09;;;;;;;20.43;12.03;;;1.00;99.90;0.70;101114.00;;;;4973796;28;107143;-66
2022/03/04 03:49:36;;;;;;;21.60;12.73;;;1.40;99.90;0.70;101106.00;;;;4975085;28;87657;-65
2022/03/04 03:52:03;;;;;;;19.43;12.20;;;1.00;99.90;0.70;101105.00;;;;4974262;28;88049;-65
2022/03/04 03:54:29;;;;;;;24.60;11.50;;;1.00;99.90;0.70;101111.00;;;;4973640;28;89345;-64
2022/03/04 03:56:54;;;;;;;24.20;12.70;;;0.90;99.90;0.70;101107.00;;;;4974168;28;113482;-66
2022/03/04 03:59:20;;;;;;;20.07;11.87;;;1.70;99.90;0.70;101101.00;;;;4973943;28;106142;-66
2022/03/04 04:01:46;;;;;;;20.60;10.90;;;1.00;99.90;0.80;101111.00;;;;4974413;28;89815;-65
2022/03/04 04:04:12;;;;;;;22.43;11.33;;;1.70;99.90;0.80;101119.00;;;;4973640;28;118339;-65
2022/03/04 04:06:39;;;;;;;17.83;10.03;;;1.90;99.90;0.80;101110.00;;;;4973625;28;87891;-65
2022/03/04 04:09:08;;;;;;;22.43;11.60;;;1.10;99.90;0.80;101112.00;;;;4975187;28;87571;-65
2022/03/04 04:11:37;;;;;;;14.77;8.93;;;1.40;99.90;0.80;101108.00;;;;4974430;28;89115;-65
2022/03/04 04:14:09;;;;;;;18.00;9.77;;;1.00;99.90;0.80;101122.00;;;;4975059;28;103750;-66
2022/03/04 04:16:35;;;;;;;20.63;10.10;;;1.10;99.90;0.90;101111.00;;;;4972331;28;87805;-66
2022/03/04 04:19:02;;;;;;;11.57;8.47;;;1.10;99.90;0.90;101106.00;;;;4974976;28;86849;-66
2022/03/04 04:21:28;;;;;;;14.97;9.80;;;1.20;99.90;0.90;101115.00;;;;4974178;28;88745;-66
2022/03/04 04:23:55;;;;;;;14.80;9.43;;;1.20;99.90;0.90;101125.00;;;;4974129;28;117063;-66
2022/03/04 04:26:22;;;;;;;14.20;8.27;;;1.70;99.90;0.90;101128.00;;;;4973898;28;88795;-65
2022/03/04 04:28:50;;;;;;;14.40;9.70;;;1.80;99.90;0.90;101117.00;;;;4975967;28;87823;-66
2022/03/04 04:31:16;;;;;;;19.50;10.00;;;1.20;99.90;1.00;101132.00;;;;4975495;28;87785;-64
2022/03/04 04:33:43;;;;;;;18.67;9.83;;;1.30;99.90;1.00;101123.00;;;;4974412;28;91828;-65
2022/03/04 04:36:09;;;;;;;14.17;8.37;;;1.20;99.90;1.00;101124.00;;;;4974043;28;113872;-65
2022/03/04 04:38:34;;;;;;;16.27;8.90;;;1.30;99.90;1.00;101119.00;;;;4975676;28;87816;-66
2022/03/04 04:41:00;;;;;;;16.67;10.43;;;1.90;99.90;1.00;101121.00;;;;4973882;28;117414;-65
2022/03/04 04:43:26;;;;;;;13.77;8.93;;;1.30;99.90;1.00;101126.00;;;;4974165;28;88473;-65
2022/03/04 04:45:53;;;;;;;14.90;9.33;;;1.20;99.90;1.00;101124.00;;;;4973148;28;113602;-65
2022/03/04 04:48:19;;;;;;;18.07;9.47;;;1.40;99.90;1.00;101136.00;;;;4975392;28;88086;-65
2022/03/04 04:50:46;;;;;;;15.73;9.17;;;1.30;99.90;1.00;101126.00;;;;4973224;28;119653;-65
2022/03/04 04:53:11;;;;;;;16.30;8.80;;;1.20;99.90;1.00;101121.00;;;;4974767;28;89909;-66
2022/03/04 04:55:37;;;;;;;17.97;10.47;;;1.20;99.90;1.00;101123.00;;;;4974422;28;90551;-66
2022/03/04 04:58:03;;;;;;;22.03;10.47;;;1.30;99.90;1.10;101123.00;;;;4973335;28;109293;-65
2022/03/04 05:00:29;;;;;;;15.37;9.33;;;1.40;99.90;1.10;101120.00;;;;4973149;28;118728;-64
2022/03/04 05:02:54;;;;;;;22.40;10.90;;;1.40;99.90;1.10;101129.00;;;;4974435;28;92074;-65
2022/03/04 05:05:20;;;;;;;17.87;9.17;;;1.40;99.90;1.10;101113.00;;;;4973638;28;101218;-65
2022/03/04 05:07:47;;;;;;;18.43;10.93;;;1.30;99.90;1.10;101103.00;;;;4978258;28;86663;-65
2022/03/04 05:10:13;;;;;;;28.27;12.23;;;1.40;99.90;1.10;101111.00;;;;4976729;28;88124;-66
2022/03/04 05:12:40;;;;;;;14.67;9.03;;;1.30;99.90;1.10;101108.00;;;;4977180;28;87886;-65
2022/03/04 05:15:07;;;;;;;18.93;9.70;;;1.30;99.90;1.10;101109.00;;;;4977466;28;88861;-66
2022/03/04 05:17:33;;;;;;;18.20;10.33;;;1.40;99.90;1.10;101096.00;;;;4977323;28;89940;-64
2022/03/04 05:19:59;;;;;;;16.47;9.40;;;1.40;99.90;1.10;101101.00;;;;4977038;28;88895;-64
2022/03/04 05:22:24;;;;;;;23.30;10.20;;;2.10;99.90;1.00;101113.00;;;;4977208;28;117176;-65
2022/03/04 05:24:50;;;;;;;17.97;10.53;;;1.40;99.90;1.10;101115.00;;;;4976437;28;109804;-65
2022/03/04 05:27:16;;;;;;;19.63;11.90;;;1.60;99.90;1.10;101105.00;;;;4976391;28;108734;-64
2022/03/04 05:29:42;;;;;;;12.93;10.17;;;1.20;99.90;1.10;101110.00;;;;4977166;28;88421;-65
2022/03/04 05:32:07;;;;;;;17.20;11.40;;;1.30;99.90;1.00;101120.00;;;;4976159;28;117826;-66
2022/03/04 05:34:34;;;;;;;17.00;9.40;;;2.00;99.90;1.10;101115.00;;;;4974962;28;87995;-64
2022/03/04 05:37:00;;;;;;;20.43;11.30;;;1.30;99.90;1.00;101114.00;;;;4976979;28;87860;-66
2022/03/04 05:39:26;;;;;;;22.20;11.03;;;1.30;99.90;1.10;101114.00;;;;4975160;28;118885;-64
2022/03/04 05:41:51;;;;;;;16.17;10.00;;;1.30;99.90;1.10;101119.00;;;;4975560;28;118964;-65
2022/03/04 05:44:17;;;;;;;13.87;10.83;;;1.30;99.90;1.10;101106.00;;;;4976313;28;92053;-65
2022/03/04 05:46:45;;;;;;;18.53;10.97;;;1.30;99.90;1.10;101122.00;;;;4976882;28;87602;-64
2022/03/04 05:49:11;;;;;;;22.00;12.10;;;2.20;99.90;1.10;101124.00;;;;4977233;28;87723;-65
2022/03/04 05:51:37;;;;;;;19.27;9.63;;;2.10;99.90;1.10;101133.00;;;;4975627;28;94888;-64
2022/03/04 05:54:02;;;;;;;20.23;11.13;;;1.30;99.90;1.10;101123.00;;;;4977506;28;87706;-64
2022/03/04 05:56:29;;;;;;;18.50;10.63;;;1.30;99.90;1.10;101121.00;;;;4976208;28;92273;-65
2022/03/04 05:58:55;;;;;;;24.57;12.80;;;1.90;99.90;1.10;101142.00;;;;4975931;28;118573;-65
2022/03/04 06:01:21;;;;;;;20.90;10.43;;;1.70;99.90;1.00;101140.00;;;;4976643;28;88450;-65
2022/03/04 06:03:46;;;;;;;22.23;12.27;;;1.70;99.90;1.00;101136.00;;;;4973308;28;112125;-64
2022/03/04 06:06:13;;;;;;;22.23;11.83;;;1.30;99.90;1.00;101139.00;;;;4975638;28;87971;-66
2022/03/04 06:08:40;;;;;;;24.60;13.10;;;1.70;99.90;1.00;101145.00;;;;4975464;28;88974;-65
2022/03/04 06:11:10;;;;;;;24.03;13.07;;;1.30;99.90;1.10;101140.00;;;;4976314;28;88290;-65
2022/03/04 06:13:37;;;;;;;25.90;13.47;;;1.60;99.90;1.10;101147.00;;;;4976309;28;87724;-65
2022/03/04 06:16:04;;;;;;;21.43;12.00;;;1.90;99.90;1.00;101140.00;;;;4975541;28;98207;-65
2022/03/04 06:18:29;;;;;;;22.67;11.87;;;1.30;99.90;1.00;101147.00;;;;4974434;28;117445;-65
2022/03/04 06:20:55;;;;;;;22.07;12.37;;;1.30;99.90;1.10;101151.00;;;;4976522;28;109560;-65
2022/03/04 06:23:21;;;;;;;25.50;13.83;;;1.30;99.90;1.10;101145.00;;;;4975811;28;94662;-65
2022/03/04 06:25:47;;;;;;;19.97;11.13;;;1.70;99.90;1.10;101145.00;;;;4976754;28;94461;-65
2022/03/04 06:28:13;;;;;;;25.03;11.93;;;1.30;99.90;1.10;101156.00;;;;4975489;28;90230;-64
2022/03/04 06:30:39;;;;;;;18.63;12.13;;;2.00;99.90;1.10;101148.00;;;;4976341;28;98284;-66
2022/03/04 06:33:42;;;;;;;26.37;13.10;;;1.40;99.90;1.10;101157.00;;;;4977393;28;87885;-66
2022/03/04 06:36:19;;;;;;;20.43;12.37;;;2.00;99.90;1.20;101156.00;;;;4975299;28;87902;-65
2022/03/04 06:38:45;;;;;;;18.37;10.97;;;1.90;99.90;1.20;101160.00;;;;4978077;28;88165;-65
2022/03/04 06:41:14;;;;;;;20.87;10.57;;;1.50;99.90;1.20;101157.00;;;;4977144;28;88043;-65
2022/03/04 06:43:41;;;;;;;28.53;12.53;;;1.50;99.90;1.30;101169.00;;;;4977507;28;87600;-65
2022/03/04 06:46:07;;;;;;;26.13;11.73;;;1.70;99.90;1.30;101166.00;;;;4977220;28;86975;-65
2022/03/04 06:48:33;;;;;;;23.23;12.80;;;1.50;99.90;1.30;101171.00;;;;4977436;28;102639;-66
2022/03/04 06:51:00;;;;;;;20.63;12.90;;;2.20;99.90;1.40;101177.00;;;;4982546;28;87834;-66
2022/03/04 06:53:26;;;;;;;23.37;12.60;;;1.60;99.90;1.40;101172.00;;;;4974601;28;88530;-66
2022/03/04 06:55:52;;;;;;;23.17;12.77;;;1.60;99.90;1.40;101170.00;;;;4975350;28;87696;-67
2022/03/04 06:58:18;;;;;;;23.17;13.70;;;1.90;99.90;1.50;101178.00;;;;4972560;28;117043;-66
2022/03/04 07:00:45;;;;;;;20.60;12.47;;;1.80;99.90;1.50;101169.00;;;;4975099;28;100827;-65
2022/03/04 07:03:11;;;;;;;25.90;11.43;;;1.80;99.90;1.50;101178.00;;;;4975442;28;87780;-65
2022/03/04 07:05:38;;;;;;;23.60;11.73;;;1.80;99.90;1.60;101183.00;;;;4975969;28;87866;-65
2022/03/04 07:08:07;;;;;;;23.27;11.03;;;2.40;99.90;1.60;101186.00;;;;4975083;28;87681;-65
2022/03/04 07:10:34;;;;;;;21.37;11.27;;;1.80;99.90;1.70;101191.00;;;;4977771;28;88739;-65
2022/03/04 07:13:00;;;;;;;24.03;12.60;;;1.90;99.90;1.70;101182.00;;;;4977133;28;87970;-65
2022/03/04 07:15:26;;;;;;;23.53;11.53;;;1.90;99.90;1.80;101189.00;;;;4976155;28;108967;-65
2022/03/04 07:17:51;;;;;;;20.97;11.07;;;2.00;99.90;1.80;101194.00;;;;4976000;28;90932;-65
2022/03/04 07:20:17;;;;;;;23.03;11.77;;;2.00;99.90;1.80;101181.00;;;;4976919;28;100671;-65
2022/03/04 07:22:43;;;;;;;19.37;11.33;;;2.10;99.90;1.80;101187.00;;;;4975597;28;101014;-65
2022/03/04 07:25:12;;;;;;;17.87;9.67;;;2.80;99.90;1.90;101187.00;;;;4976219;28;109192;-66
2022/03/04 07:27:39;;;;;;;20.50;10.50;;;2.60;99.90;1.90;101194.00;;;;4976928;28;88927;-65
2022/03/04 07:30:16;;;;;;;16.37;9.30;;;3.00;99.90;1.90;101204.00;;;;4975025;28;106127;-65
2022/03/04 07:32:43;;;;;;;19.27;10.30;;;2.70;99.90;1.90;101200.00;;;;4975817;28;87552;-65
2022/03/04 07:35:11;;;;;;;33.17;10.13;;;2.20;99.90;2.00;101207.00;;;;4975341;28;86988;-65
2022/03/04 07:37:42;;;;;;;17.53;8.63;;;2.20;99.90;2.00;101203.00;;;;4974894;28;88742;-65
2022/03/04 07:40:11;;;;;;;19.93;7.47;;;2.20;99.90;2.00;101208.00;;;;4975631;28;90019;-65
2022/03/04 07:42:38;;;;;;;12.83;7.40;;;2.20;99.90;2.00;101221.00;;;;4974510;28;98469;-66
2022/03/04 07:45:06;;;;;;;13.77;8.03;;;2.20;99.90;2.00;101215.00;;;;4976128;28;87938;-66
2022/03/04 07:47:32;;;;;;;15.50;8.33;;;2.30;99.90;2.10;101214.00;;;;4973064;28;88547;-66
2022/03/04 07:49:58;;;;;;;11.50;6.40;;;2.80;99.90;2.10;101212.00;;;;4974950;28;118235;-65
2022/03/04 07:52:31;;;;;;;13.57;7.47;;;2.30;99.90;2.20;101216.00;;;;4976293;28;108826;-65
2022/03/04 07:55:01;;;;;;;12.30;7.60;;;2.40;99.90;2.20;101217.00;;;;4955542;28;87986;-65
2022/03/04 07:57:27;;;;;;;16.67;8.10;;;2.50;99.90;2.20;101217.00;;;;4955248;28;89214;-66
2022/03/04 07:59:53;;;;;;;19.47;9.43;;;2.60;99.90;2.30;101225.00;;;;4962035;28;87829;-65
2022/03/04 08:02:19;;;;;;;17.23;8.63;;;3.20;99.90;2.30;101234.00;;;;4977304;28;87792;-65
2022/03/04 08:04:45;;;;;;;19.80;7.83;;;2.60;99.90;2.30;101233.00;;;;4977063;28;87664;-65
2022/03/04 08:07:11;;;;;;;10.90;7.83;;;3.20;99.90;2.30;101236.00;;;;4975736;28;88879;-65
2022/03/04 08:09:36;;;;;;;9.97;7.13;;;2.60;99.90;2.30;101231.00;;;;4976445;28;98953;-65
2022/03/04 08:12:02;;;;;;;11.77;7.07;;;2.90;99.90;2.30;101235.00;;;;4975633;28;89128;-65
2022/03/04 08:14:29;;;;;;;12.93;8.03;;;2.60;99.90;2.30;101241.00;;;;4974515;28;97492;-65
2022/03/04 08:16:55;;;;;;;12.27;6.80;;;2.60;99.90;2.30;101236.00;;;;4975179;28;88944;-66
2022/03/04 08:19:20;;;;;;;14.47;6.77;;;3.00;99.90;2.30;101233.00;;;;4974590;28;119098;-66
2022/03/04 08:21:47;;;;;;;12.47;6.30;;;2.60;99.90;2.30;101231.00;;;;4976531;28;87491;-66
2022/03/04 08:24:13;;;;;;;11.37;6.87;;;2.60;99.90;2.40;101237.00;;;;4977789;28;86944;-66
2022/03/04 08:26:41;;;;;;;14.40;7.30;;;3.10;99.90;2.40;101235.00;;;;4974655;28;118329;-66
2022/03/04 08:29:08;;;;;;;15.83;7.63;;;2.60;99.90;2.40;101231.00;;;;4976592;28;87892;-66
2022/03/04 08:31:34;;;;;;;9.63;6.07;;;2.60;99.90;2.50;101234.00;;;;4975740;28;88631;-66
2022/03/04 08:34:00;;;;;;;10.47;6.97;;;3.00;99.90;2.50;101250.00;;;;4974795;28;108831;-66
2022/03/04 08:36:26;;;;;;;10.37;6.47;;;2.80;99.90;2.60;101247.00;;;;4971055;28;117121;-66
2022/03/04 08:38:51;;;;;;;13.03;7.10;;;3.30;99.90;2.60;101245.00;;;;4975853;28;88961;-66
2022/03/04 08:41:17;;;;;;;11.23;5.87;;;2.80;99.90;2.60;101251.00;;;;4976273;28;111031;-65
2022/03/04 08:43:43;;;;;;;9.90;6.70;;;2.80;99.90;2.70;101243.00;;;;4983547;28;109145;-65
2022/03/04 08:46:12;;;;;;;12.00;6.33;;;2.90;99.90;2.70;101251.00;;;;4977990;28;87633;-66
2022/03/04 08:48:37;;;;;;;12.17;7.00;;;2.90;99.90;2.70;101249.00;;;;4978975;28;87617;-65
2022/03/04 08:51:03;;;;;;;8.90;5.87;;;2.90;99.90;2.80;101252.00;;;;4978732;28;99073;-64
2022/03/04 08:53:29;;;;;;;10.50;6.77;;;2.90;99.90;2.80;101243.00;;;;4978361;28;105904;-66
2022/03/04 08:55:55;;;;;;;9.73;6.77;;;3.00;99.90;2.90;101252.00;;;;4975458;28;116427;-67
2022/03/04 08:58:21;;;;;;;15.93;7.17;;;3.10;99.90;3.00;101241.00;;;;4975720;28;88054;-66
2022/03/04 09:00:46;;;;;;;9.00;6.43;;;3.10;99.90;3.00;101248.00;;;;4977880;28;88015;-65
2022/03/04 09:03:12;;;;;;;12.60;6.53;;;3.20;99.90;3.10;101252.00;;;;4977074;28;108160;-66
2022/03/04 09:05:38;;;;;;;11.80;5.50;;;3.30;99.90;3.20;101250.00;;;;4978071;28;88790;-65
2022/03/04 09:08:04;;;;;;;11.97;5.63;;;3.30;99.90;3.20;101258.00;;;;4977741;28;92714;-66
2022/03/04 09:10:30;;;;;;;7.67;5.20;;;3.40;99.90;3.30;101260.00;;;;4977933;28;87609;-66
2022/03/04 09:12:56;;;;;;;9.90;5.53;;;3.50;99.90;3.40;101265.00;;;;4978541;28;87091;-65
2022/03/04 09:15:22;;;;;;;8.63;5.90;;;3.50;99.90;3.40;101264.00;;;;4978946;28;88762;-65
2022/03/04 09:17:48;;;;;;;12.37;5.90;;;3.50;99.90;3.50;101263.00;;;;4978377;28;88039;-65
2022/03/04 09:20:14;;;;;;;12.33;6.27;;;3.60;99.90;3.50;101265.00;;;;4977901;28;88838;-65
2022/03/04 09:22:41;;;;;;;8.77;5.40;;;3.70;99.90;3.60;101265.00;;;;4977875;28;87879;-65
2022/03/04 09:25:07;;;;;;;8.33;4.93;;;3.70;99.90;3.60;101268.00;;;;4975561;28;89085;-65
2022/03/04 09:27:33;;;;;;;9.17;4.87;;;3.80;99.90;3.70;101258.00;;;;4976767;28;88543;-65
2022/03/04 09:29:59;;;;;;;7.17;4.30;;;3.80;99.90;3.70;101266.00;;;;4976922;28;108839;-65
2022/03/04 09:32:25;;;;;;;9.27;5.47;;;3.90;99.90;3.70;101267.00;;;;4979195;28;87662;-65
2022/03/04 09:34:50;;;;;;;7.07;4.67;;;3.90;99.90;3.70;101268.00;;;;4977656;28;109336;-66
2022/03/04 09:37:16;;;;;;;5.60;3.70;;;3.90;99.90;3.70;101275.00;;;;4977401;28;107160;-65
2022/03/04 09:39:43;;;;;;;9.50;4.80;;;3.90;99.90;3.70;101267.00;;;;4977462;28;100779;-64
2022/03/04 09:42:09;;;;;;;8.80;4.87;;;3.80;99.90;3.70;101284.00;;;;4974955;28;91151;-65
2022/03/04 09:44:34;;;;;;;10.10;5.03;;;3.90;99.90;3.70;101278.00;;;;4976070;28;118700;-65
2022/03/04 09:47:01;;;;;;;6.27;4.67;;;3.90;99.90;3.80;101273.00;;;;4975497;28;118119;-66
2022/03/04 09:49:35;;;;;;;5.37;3.60;;;3.90;99.90;3.80;101264.00;;;;4977183;28;87981;-65
2022/03/04 09:52:03;;;;;;;12.73;4.27;;;4.00;99.90;3.80;101270.00;;;;4977235;28;87842;-65
2022/03/04 09:54:29;;;;;;;8.53;4.33;;;4.00;99.90;3.80;101272.00;;;;4977640;28;87879;-65
2022/03/04 09:56:56;;;;;;;6.23;4.30;;;4.00;99.90;3.80;101279.00;;;;4977595;28;93953;-65
2022/03/04 09:59:22;;;;;;;6.30;3.73;;;3.90;99.90;3.80;101272.00;;;;4978186;28;87603;-65
2022/03/04 10:01:48;;;;;;;5.37;3.27;;;3.90;99.90;3.70;101282.00;;;;4978249;28;87125;-65
2022/03/04 10:04:14;;;;;;;9.60;5.00;;;3.90;99.90;3.70;101278.00;;;;4977432;28;94306;-64
2022/03/04 10:06:48;;;;;;;7.27;4.87;;;3.90;99.90;3.70;101273.00;;;;4976674;28;106015;-66
2022/03/04 10:09:35;;;;;;;13.70;6.33;;;3.90;99.90;3.70;101270.00;;;;4957141;28;88824;-65
2022/03/04 10:12:04;;;;;;;7.57;4.83;;;3.90;99.90;3.70;101277.00;;;;4955781;28;87944;-65
2022/03/04 10:14:30;;;;;;;4.60;3.97;;;3.90;99.90;3.80;101280.00;;;;4957617;28;88435;-65
2022/03/04 10:16:58;;;;;;;12.37;4.87;;;3.90;99.90;3.80;101273.00;;;;4956670;28;88718;-65
2022/03/04 10:19:23;;;;;;;8.33;5.23;;;3.90;99.90;3.80;101277.00;;;;4975513;28;87842;-66
2022/03/04 10:22:07;;;;;;;8.00;4.90;;;4.00;99.90;3.90;101284.00;;;;4977585;28;87784;-66
2022/03/04 10:24:35;;;;;;;10.93;5.23;;;4.00;99.90;3.90;101283.00;;;;4977264;28;116679;-64
2022/03/04 10:27:04;;;;;;;10.10;4.33;;;4.10;99.90;4.00;101278.00;;;;4981127;28;88333;-65
2022/03/04 10:29:33;;;;;;;9.60;5.27;;;4.10;99.90;4.00;101276.00;;;;4983171;28;87729;-64
2022/03/04 10:32:24;;;;;;;7.57;4.50;;;4.20;99.90;4.10;101277.00;;;;4977275;28;93582;-64
2022/03/04 10:34:51;;;;;;;6.80;5.10;;;4.20;99.90;4.20;101272.00;;;;4975856;28;89855;-64
2022/03/04 10:37:41;;;;;;;7.07;4.20;;;4.30;99.90;4.30;101272.00;;;;4976090;28;89515;-64
2022/03/04 10:40:19;;;;;;;8.23;3.97;;;4.40;99.90;4.40;101274.00;;;;4977101;28;87806;-65
2022/03/04 10:42:53;;;;;;;4.60;4.10;;;4.50;99.90;4.40;101277.00;;;;4976399;28;87617;-66
2022/03/04 10:45:30;;;;;;;7.17;4.40;;;4.60;99.90;4.50;101268.00;;;;4976339;28;87925;-65
2022/03/04 10:48:08;;;;;;;4.03;3.17;;;4.60;99.90;4.60;101274.00;;;;4975049;28;87678;-65
2022/03/04 10:50:36;;;;;;;11.33;4.43;;;4.70;99.90;4.60;101282.00;;;;4975918;28;93776;-67